Time;durP1;ratioP1;P1;durP2;ratioP2;P2;SDS_P1;SDS_P2;PMS_P1;PMS_P2;Temp;Humidity;BMP_temperature;BMP_pressure;BME280_temperature;BME280_humidity;BME280_pressure;Samples;Min_cycle;Max_cycle;Signal;HPM_P1;HPM_P2
2024/04/04 00:01:54;;;;;;;6.50;5.05;;;;;;;31.42;87.18;100878.25;5059233;27;70165;-31
2024/04/04 00:04:23;;;;;;;5.03;4.18;;;;;;;31.45;87.64;100882.41;5066812;27;66381;-30
2024/04/04 00:06:52;;;;;;;4.55;4.18;;;;;;;31.47;87.62;100883.81;5080560;27;69901;-29
2024/04/04 00:09:20;;;;;;;5.07;4.60;;;;;;;31.53;87.75;100882.09;5078957;27;66565;-31
2024/04/04 00:11:51;;;;;;;5.45;5.05;;;;;;;31.57;87.40;100889.56;5076777;27;69100;-29
2024/04/04 00:14:20;;;;;;;6.97;4.95;;;;;;;31.63;86.48;100887.03;5080418;27;66489;-29
2024/04/04 00:16:49;;;;;;;7.00;4.93;;;;;;;31.66;86.41;100884.69;5075883;27;70168;-30
2024/04/04 00:19:19;;;;;;;8.52;5.47;;;;;;;31.69;86.64;100891.53;5077857;27;65783;-29
2024/04/04 00:21:47;;;;;;;8.27;5.55;;;;;;;31.72;86.61;100893.78;5061666;28;70829;-29
2024/04/04 00:24:16;;;;;;;6.75;5.40;;;;;;;31.74;86.97;100897.13;5073684;28;66367;-30
2024/04/04 00:26:45;;;;;;;5.80;5.30;;;;;;;31.69;86.92;100888.81;5069782;28;69056;-29
2024/04/04 00:29:14;;;;;;;6.68;5.13;;;;;;;31.78;86.73;100898.31;5064528;28;66627;-30
2024/04/04 00:31:42;;;;;;;6.43;5.03;;;;;;;31.81;87.11;100897.84;5061811;28;70011;-29
2024/04/04 00:34:11;;;;;;;8.68;4.95;;;;;;;31.81;87.08;100909.53;5070141;28;66849;-29
2024/04/04 00:36:40;;;;;;;5.82;4.70;;;;;;;31.83;86.85;100915.56;5059952;28;70310;-29
2024/04/04 00:39:09;;;;;;;4.93;4.45;;;;;;;31.86;86.93;100911.56;5072347;28;65858;-30
2024/04/04 00:41:38;;;;;;;5.60;5.20;;;;;;;31.87;87.49;100915.94;5072880;28;69958;-31
2024/04/04 00:44:07;;;;;;;9.38;5.18;;;;;;;31.88;87.29;100920.31;5071578;28;66186;-30
2024/04/04 00:46:36;;;;;;;8.07;5.47;;;;;;;31.91;87.46;100930.75;5073490;28;70137;-29
2024/04/04 00:49:06;;;;;;;7.88;4.80;;;;;;;31.98;86.87;100941.50;5056164;28;66452;-29
2024/04/04 00:51:35;;;;;;;7.78;4.10;;;;;;;31.95;87.50;100937.34;5076045;27;69205;-29
2024/04/04 00:54:04;;;;;;;9.88;5.28;;;;;;;31.94;87.07;100934.91;5070613;28;65534;-30
2024/04/04 00:56:35;;;;;;;6.53;4.32;;;;;;;31.94;87.52;100933.00;5071224;28;69940;-29
2024/04/04 00:59:06;;;;;;;10.52;4.93;;;;;;;31.96;87.84;100933.63;5065142;28;66517;-30
2024/04/04 01:01:34;;;;;;;6.30;3.75;;;;;;;31.98;87.82;100936.09;5071564;28;70519;-29
2024/04/04 01:04:03;;;;;;;4.32;3.92;;;;;;;32.03;88.33;100942.50;5072004;28;66514;-29
2024/04/04 01:06:33;;;;;;;4.50;3.88;;;;;;;32.03;88.01;100944.38;5080173;27;70260;-29
2024/04/04 01:09:05;;;;;;;6.68;3.95;;;;;;;32.07;88.07;100944.75;5071659;28;66327;-29
2024/04/04 01:11:34;;;;;;;6.47;3.97;;;;;;;32.08;88.58;100946.41;5073032;28;70110;-30
2024/04/04 01:14:06;;;;;;;9.15;4.40;;;;;;;31.91;88.68;100913.63;5065728;28;65677;-29
2024/04/04 01:16:35;;;;;;;11.00;4.00;;;;;;;32.11;88.25;100954.94;5074987;28;70436;-29
2024/04/04 01:19:04;;;;;;;7.03;4.53;;;;;;;32.13;88.27;100949.28;5065017;27;66285;-30
2024/04/04 01:21:33;;;;;;;9.38;5.18;;;;;;;32.12;88.22;100947.59;5085522;27;69955;-29
2024/04/04 01:24:02;;;;;;;7.15;4.20;;;;;;;32.18;88.05;100946.69;5072980;28;65267;-30
2024/04/04 01:26:31;;;;;;;8.68;4.70;;;;;;;32.18;88.27;100963.84;5072984;28;69872;-30
2024/04/04 01:29:00;;;;;;;9.50;4.63;;;;;;;32.12;91.10;100958.47;5067557;28;66525;-29
2024/04/04 01:31:30;;;;;;;12.60;5.03;;;;;;;32.20;88.61;100955.44;5069095;27;69984;-30
2024/04/04 01:33:58;;;;;;;8.05;4.30;;;;;;;32.26;88.15;100959.97;5064842;28;66300;-29
2024/04/04 01:36:27;;;;;;;5.70;4.82;;;;;;;32.27;88.05;100958.91;5040601;28;70103;-30
2024/04/04 01:38:56;;;;;;;6.97;4.35;;;;;;;32.26;88.03;100962.66;5061712;28;66546;-30
2024/04/04 01:41:25;;;;;;;6.20;4.85;;;;;;;32.31;87.47;100962.00;5066021;28;69180;-33
2024/04/04 01:43:54;;;;;;;4.63;4.15;;;;;;;32.32;87.28;100964.50;5065336;28;65911;-30
2024/04/04 01:46:23;;;;;;;6.50;4.10;;;;;;;32.33;87.37;100962.59;5075605;28;69374;-29
2024/04/04 01:48:52;;;;;;;5.53;4.72;;;;;;;32.36;87.31;100957.53;5032709;28;65826;-30
2024/04/04 01:51:20;;;;;;;7.32;4.20;;;;;;;32.38;86.70;100963.56;5073031;28;70474;-31
2024/04/04 01:53:49;;;;;;;4.63;4.13;;;;;;;32.36;86.78;100954.81;5065279;28;65898;-29
2024/04/04 01:56:18;;;;;;;5.13;3.90;;;;;;;32.38;86.64;100946.47;5063502;28;69703;-30
2024/04/04 01:58:47;;;;;;;4.20;3.80;;;;;;;32.43;86.50;100958.28;5064254;28;65661;-30
2024/04/04 02:01:16;;;;;;;4.75;3.70;;;;;;;32.43;86.55;100954.72;5047255;28;69229;-30
2024/04/04 02:03:45;;;;;;;4.20;3.80;;;;;;;32.46;86.25;100960.59;5062178;28;66542;-30
2024/04/04 02:06:13;;;;;;;4.05;3.65;;;;;;;32.51;86.07;100961.75;5065769;28;70702;-30
2024/04/04 02:08:42;;;;;;;6.22;3.90;;;;;;;32.53;86.14;100965.09;5061878;28;66304;-31
2024/04/04 02:11:11;;;;;;;5.20;3.50;;;;;;;32.56;85.90;100961.91;5072521;28;70618;-31
2024/04/04 02:13:40;;;;;;;6.50;3.67;;;;;;;32.57;85.49;100969.84;5067523;28;66142;-30
2024/04/04 02:16:09;;;;;;;8.68;3.75;;;;;;;32.57;85.30;100956.25;5064649;28;70457;-30
2024/04/04 02:18:38;;;;;;;3.40;3.10;;;;;;;32.59;85.38;100958.72;5065733;28;66202;-30
2024/04/04 02:21:07;;;;;;;4.18;3.63;;;;;;;32.60;85.29;100949.53;5060721;28;71030;-30
2024/04/04 02:23:35;;;;;;;7.05;3.15;;;;;;;32.63;85.33;100954.50;5070678;28;66087;-30
2024/04/04 02:26:04;;;;;;;3.90;3.58;;;;;;;32.64;85.13;100953.44;5066299;28;70630;-30
2024/04/04 02:28:33;;;;;;;5.35;3.35;;;;;;;32.67;84.83;100952.97;5051324;28;65700;-29
2024/04/04 02:31:02;;;;;;;3.90;3.67;;;;;;;32.67;85.01;100942.13;5070534;28;69660;-30
2024/04/04 02:33:31;;;;;;;7.30;3.70;;;;;;;32.67;84.83;100945.66;5075365;28;66373;-31
2024/04/04 02:36:00;;;;;;;3.25;3.03;;;;;;;32.66;85.04;100937.75;5070954;28;69386;-36
2024/04/04 02:38:31;;;;;;;3.58;3.10;;;;;;;32.69;84.70;100938.09;5063098;28;65917;-30
2024/04/04 02:41:00;;;;;;;3.53;3.25;;;;;;;32.73;84.75;100935.75;5066021;28;70651;-30
2024/04/04 02:43:28;;;;;;;3.97;3.25;;;;;;;32.74;84.26;100931.16;5075472;28;66208;-30
2024/04/04 02:46:02;;;;;;;5.07;4.57;;;;;;;32.77;84.83;100928.00;5068402;28;69318;-30
2024/04/04 02:48:31;;;;;;;5.35;4.95;;;;;;;32.77;84.52;100928.81;5073306;27;66255;-29
2024/04/04 02:50:59;;;;;;;5.43;4.93;;;;;;;32.81;84.34;100919.13;5062881;28;70422;-32
2024/04/04 02:53:28;;;;;;;5.32;4.93;;;;;;;32.83;84.36;100927.88;5077446;27;66004;-30
2024/04/04 02:55:59;;;;;;;5.38;4.57;;;;;;;32.63;84.29;100889.34;5067174;28;70742;-33
2024/04/04 02:58:28;;;;;;;5.32;4.63;;;;;;;32.84;84.14;100918.66;5069631;28;66752;-30
2024/04/04 03:01:03;;;;;;;4.85;4.45;;;;;;;32.65;84.52;100881.75;5069003;28;70439;-30
2024/04/04 03:03:33;;;;;;;5.22;4.82;;;;;;;32.87;84.02;100923.63;5066555;28;66466;-30
2024/04/04 03:06:02;;;;;;;5.25;4.78;;;;;;;32.90;83.66;100923.19;5050896;28;70536;-30
2024/04/04 03:08:31;;;;;;;4.30;4.00;;;;;;;32.93;83.88;100920.00;5070117;28;65871;-31
2024/04/04 03:10:59;;;;;;;4.80;4.40;;;;;;;32.96;83.76;100920.56;5071449;28;70405;-29
2024/04/04 03:13:28;;;;;;;5.10;4.53;;;;;;;32.97;83.74;100924.94;5068252;28;66350;-31
2024/04/04 03:15:58;;;;;;;4.53;4.13;;;;;;;32.96;83.77;100921.41;5068239;28;70295;-30
2024/04/04 03:18:27;;;;;;;4.80;4.40;;;;;;;33.00;83.49;100921.78;5068681;28;65638;-31
2024/04/04 03:20:55;;;;;;;4.70;4.20;;;;;;;33.03;83.38;100926.75;5071204;28;70309;-31
2024/04/04 03:23:24;;;;;;;4.40;4.00;;;;;;;33.06;83.30;100929.00;5079412;27;66607;-30
2024/04/04 03:25:54;;;;;;;5.00;4.60;;;;;;;33.07;83.26;100930.66;5072114;28;70450;-29
2024/04/04 03:28:23;;;;;;;4.32;4.00;;;;;;;33.10;83.13;100927.50;5062330;28;66571;-29
2024/04/04 03:30:52;;;;;;;5.82;4.35;;;;;;;33.10;83.10;100922.88;5070087;28;70108;-30
2024/04/04 03:33:21;;;;;;;4.50;4.20;;;;;;;33.13;83.02;100929.75;5066212;28;65623;-30
2024/04/04 03:35:49;;;;;;;3.70;3.50;;;;;;;33.12;82.79;100919.91;5074811;27;70276;-31
2024/04/04 03:38:19;;;;;;;5.47;4.10;;;;;;;33.20;82.57;100932.34;5048171;28;66546;-30
2024/04/04 03:40:55;;;;;;;4.15;3.85;;;;;;;33.20;82.96;100922.28;5062927;28;69807;-31
2024/04/04 03:43:24;;;;;;;4.28;3.97;;;;;;;33.24;82.85;100928.06;5072879;28;66924;-30
2024/04/04 03:45:52;;;;;;;6.63;4.15;;;;;;;33.24;82.41;100923.47;5066192;28;69854;-31
2024/04/04 03:48:22;;;;;;;4.28;3.97;;;;;;;33.25;82.87;100914.25;5065124;28;66502;-33
2024/04/04 03:50:50;;;;;;;4.00;3.70;;;;;;;33.28;82.63;100916.50;5044944;28;70648;-31
2024/04/04 03:53:20;;;;;;;5.97;3.85;;;;;;;33.30;82.61;100917.09;5064695;28;65921;-30
2024/04/04 03:55:49;;;;;;;4.05;3.75;;;;;;;33.32;82.63;100903.25;5070510;28;69996;-30
2024/04/04 03:58:27;;;;;;;5.05;3.90;;;;;;;33.32;82.56;100898.66;5068858;28;66807;-30
2024/04/04 04:00:57;;;;;;;3.78;3.47;;;;;;;33.36;82.82;100905.28;5066308;28;70571;-31
2024/04/04 04:03:26;;;;;;;4.35;4.05;;;;;;;33.38;82.53;100903.16;5071134;28;66945;-32
2024/04/04 04:05:55;;;;;;;4.03;3.72;;;;;;;33.40;82.28;100899.34;5055038;28;70408;-31
2024/04/04 04:08:24;;;;;;;4.07;3.70;;;;;;;33.43;82.37;100890.72;5072100;28;66470;-29
2024/04/04 04:10:53;;;;;;;5.88;3.35;;;;;;;33.45;82.33;100902.19;5057782;28;69944;-30
2024/04/04 04:13:21;;;;;;;4.07;3.78;;;;;;;33.47;82.20;100889.19;5072405;28;66762;-30
2024/04/04 04:15:58;;;;;;;4.25;3.83;;;;;;;33.50;82.43;100883.28;5065389;27;69476;-30
2024/04/04 04:18:26;;;;;;;5.40;3.72;;;;;;;33.51;82.35;100884.91;5069898;28;67101;-30
2024/04/04 04:23:43;;;;;;;3.80;3.60;;;;;;;33.57;81.96;100881.28;5046252;28;66484;-30
2024/04/04 04:26:13;;;;;;;4.13;3.75;;;;;;;33.61;82.15;100868.88;5064026;28;70151;-31
2024/04/04 04:28:42;;;;;;;3.30;3.08;;;;;;;33.60;82.30;100859.06;5066355;28;66388;-31
2024/04/04 04:31:28;;;;;;;4.00;3.30;;;;;;;33.62;82.34;100856.91;5075285;28;69831;-31
2024/04/04 04:33:59;;;;;;;3.40;3.20;;;;;;;33.68;81.88;100855.94;5060769;28;65734;-31
2024/04/04 04:36:32;;;;;;;4.03;3.78;;;;;;;33.50;81.69;100815.28;5067474;28;70144;-30
2024/04/04 04:39:02;;;;;;;3.92;3.63;;;;;;;33.73;81.74;100836.19;5065090;28;66353;-31
2024/04/04 04:41:32;;;;;;;3.42;3.22;;;;;;;33.69;81.65;100821.44;5063951;28;70197;-31
2024/04/04 04:44:01;;;;;;;3.72;3.42;;;;;;;33.77;81.67;100830.03;5055075;28;66463;-31
2024/04/04 04:46:29;;;;;;;4.47;3.63;;;;;;;33.82;81.82;100832.00;5065851;28;70604;-31
2024/04/04 04:48:58;;;;;;;3.60;3.40;;;;;;;33.85;81.78;100819.81;5068541;28;65428;-31
2024/04/04 04:51:30;;;;;;;4.15;3.75;;;;;;;33.86;81.36;100818.78;5057877;28;69892;-30
2024/04/04 04:53:59;;;;;;;4.82;3.13;;;;;;;33.87;81.52;100820.41;5064104;28;65134;-31
2024/04/04 04:56:30;;;;;;;4.03;3.72;;;;;;;33.91;81.95;100813.44;5054351;28;70651;-30
2024/04/04 04:58:59;;;;;;;3.58;3.35;;;;;;;33.96;81.77;100811.63;5044538;28;66967;-32
2024/04/04 05:01:28;;;;;;;4.15;3.85;;;;;;;33.97;81.93;100807.84;5069138;28;69397;-30
2024/04/04 05:03:57;;;;;;;3.97;3.67;;;;;;;34.00;81.70;100801.06;5075559;28;65274;-30
2024/04/04 05:06:28;;;;;;;9.43;4.03;;;;;;;34.03;81.91;100789.69;5075120;28;70601;-31
2024/04/04 05:08:57;;;;;;;3.97;3.67;;;;;;;34.05;81.99;100789.50;5071084;28;65695;-31
2024/04/04 05:11:26;;;;;;;4.03;3.72;;;;;;;34.08;81.74;100781.66;5062655;28;68946;-30
2024/04/04 05:13:55;;;;;;;7.55;4.63;;;;;;;34.12;81.76;100780.09;5060080;28;65928;-30
2024/04/04 05:16:24;;;;;;;4.70;4.28;;;;;;;34.16;81.80;100767.66;5059545;28;70771;-33
2024/04/04 05:18:53;;;;;;;10.48;4.50;;;;;;;34.18;81.89;100765.50;5069814;28;66645;-31
2024/04/04 05:21:22;;;;;;;5.22;4.53;;;;;;;34.25;82.22;100759.91;5076021;28;69794;-31
2024/04/04 05:23:52;;;;;;;5.43;4.93;;;;;;;34.28;81.98;100747.69;5060307;28;66461;-31
2024/04/04 05:26:21;;;;;;;5.15;4.63;;;;;;;34.33;81.82;100734.19;5066690;28;69504;-31
2024/04/04 05:28:51;;;;;;;11.30;4.55;;;;;;;34.32;81.70;100730.59;5060057;28;65625;-36
2024/04/04 05:31:20;;;;;;;4.60;4.30;;;;;;;34.39;81.86;100733.19;5077541;28;68819;-31
2024/04/04 05:34:10;;;;;;;5.47;4.35;;;;;;;34.39;82.08;100723.09;5053934;28;65952;-31
2024/04/04 05:36:39;;;;;;;4.60;4.25;;;;;;;34.41;82.03;100720.97;5076930;28;69349;-31
2024/04/04 05:39:08;;;;;;;4.22;3.97;;;;;;;34.42;81.60;100716.34;5077791;28;65774;-30
2024/04/04 05:41:38;;;;;;;4.80;4.40;;;;;;;34.48;81.58;100720.78;5074972;28;70386;-30
2024/04/04 05:44:06;;;;;;;6.43;4.43;;;;;;;34.49;81.42;100719.69;5036381;28;66353;-31
2024/04/04 05:46:36;;;;;;;4.43;4.03;;;;;;;34.35;81.30;100678.41;5045119;28;69474;-30
2024/04/04 05:49:06;;;;;;;5.07;4.57;;;;;;;34.55;81.43;100704.25;5065321;28;66564;-29
2024/04/04 05:51:36;;;;;;;4.75;4.45;;;;;;;34.57;81.05;100708.41;5045999;28;70861;-31
2024/04/04 05:54:04;;;;;;;4.30;4.00;;;;;;;34.59;81.16;100698.09;5070569;28;66466;-30
2024/04/04 05:56:35;;;;;;;6.00;4.28;;;;;;;34.60;80.84;100691.59;5058301;28;70690;-31
2024/04/04 05:59:03;;;;;;;4.70;4.40;;;;;;;34.62;81.41;100688.59;5040592;28;67052;-31
2024/04/04 06:01:33;;;;;;;5.75;3.88;;;;;;;34.64;81.41;100681.84;5058086;28;70317;-31
2024/04/04 06:04:06;;;;;;;4.03;3.55;;;;;;;34.66;80.66;100657.91;5046140;28;65250;-31
2024/04/04 06:06:35;;;;;;;4.15;3.85;;;;;;;34.69;80.81;100662.84;5057168;28;70585;-33
2024/04/04 06:09:04;;;;;;;4.20;3.92;;;;;;;34.75;80.99;100662.91;5058122;28;65786;-31
2024/04/04 06:11:33;;;;;;;3.90;3.60;;;;;;;34.74;80.55;100661.25;5052112;28;70516;-30
2024/04/04 06:14:04;;;;;;;4.13;3.83;;;;;;;34.75;80.58;100669.19;5056147;28;65723;-31
2024/04/04 06:17:13;;;;;;;3.95;3.65;;;;;;;34.74;80.53;100659.34;5044804;28;70459;-30
2024/04/04 06:19:52;;;;;;;4.32;4.03;;;;;;;34.85;80.32;100654.84;5051741;28;65955;-31
2024/04/04 06:22:21;;;;;;;4.30;4.00;;;;;;;34.86;80.69;100646.44;5052185;28;69539;-31
2024/04/04 06:24:50;;;;;;;4.18;3.88;;;;;;;34.90;80.57;100646.75;5057780;28;66166;-31
2024/04/04 06:27:19;;;;;;;4.40;4.05;;;;;;;34.92;80.14;100642.69;5067528;28;70183;-31
2024/04/04 06:29:50;;;;;;;4.05;3.75;;;;;;;34.97;80.44;100636.50;5061741;28;67399;-31
2024/04/04 06:32:19;;;;;;;4.00;3.72;;;;;;;34.96;79.91;100643.00;5058220;28;70526;-30
2024/04/04 06:34:48;;;;;;;4.60;4.18;;;;;;;34.99;79.90;100628.88;5059702;28;65789;-31
2024/04/04 06:37:18;;;;;;;3.83;3.60;;;;;;;35.04;80.38;100631.66;5058296;28;69982;-31
2024/04/04 06:39:47;;;;;;;4.18;3.78;;;;;;;35.04;80.35;100619.94;5044260;28;66318;-31
2024/04/04 06:42:16;;;;;;;4.18;3.88;;;;;;;34.97;79.73;100609.25;5041012;28;68755;-31
2024/04/04 06:44:48;;;;;;;4.00;3.72;;;;;;;35.12;79.67;100616.78;5058203;28;65993;-31
2024/04/04 06:47:17;;;;;;;3.83;3.53;;;;;;;35.16;79.68;100619.81;5052893;28;70420;-33
2024/04/04 06:49:46;;;;;;;4.10;3.78;;;;;;;35.16;79.63;100608.91;5074312;28;65681;-31
2024/04/04 06:52:15;;;;;;;4.35;4.03;;;;;;;35.23;79.26;100612.28;5056421;28;70135;-31
2024/04/04 06:54:45;;;;;;;4.68;3.60;;;;;;;35.26;79.84;100595.41;5056785;28;65935;-31
2024/04/04 06:57:15;;;;;;;3.35;3.15;;;;;;;35.27;79.32;100588.84;5044208;28;70306;-30
2024/04/04 06:59:43;;;;;;;4.10;3.80;;;;;;;35.33;79.77;100585.13;5038248;28;65721;-31
2024/04/04 07:02:16;;;;;;;5.00;4.50;;;;;;;35.36;79.24;100579.16;5066109;28;69756;-30
2024/04/04 07:04:45;;;;;;;3.70;3.47;;;;;;;35.39;79.66;100581.34;5058292;28;65996;-30
2024/04/04 07:07:14;;;;;;;4.10;3.80;;;;;;;35.45;78.84;100577.59;5057428;28;69985;-32
2024/04/04 07:09:43;;;;;;;4.03;3.83;;;;;;;35.47;79.18;100580.88;5056388;28;66082;-30
2024/04/04 07:12:14;;;;;;;4.00;3.70;;;;;;;35.51;79.09;100576.53;5040981;28;70118;-31
2024/04/04 07:14:43;;;;;;;4.28;3.88;;;;;;;35.51;78.72;100556.63;5058091;28;65692;-30
2024/04/04 07:17:14;;;;;;;3.70;3.40;;;;;;;35.62;78.60;100563.03;5042559;28;70426;-33
2024/04/04 07:19:44;;;;;;;4.40;3.72;;;;;;;35.66;78.97;100558.69;5058243;28;67103;-32
2024/04/04 07:22:13;;;;;;;3.70;3.50;;;;;;;35.73;78.14;100556.56;5057933;28;69501;-31
2024/04/04 07:24:42;;;;;;;3.88;3.67;;;;;;;35.78;78.22;100551.16;5055044;28;66628;-31
2024/04/04 07:27:11;;;;;;;3.55;3.35;;;;;;;35.84;77.80;100547.38;5057469;28;69361;-31
2024/04/04 07:29:42;;;;;;;4.70;4.28;;;;;;;35.68;78.00;100504.69;5053387;28;66150;-31
2024/04/04 07:32:11;;;;;;;4.10;3.90;;;;;;;35.94;77.93;100536.53;5058487;28;69453;-31
2024/04/04 07:34:40;;;;;;;4.07;3.78;;;;;;;35.93;78.15;100513.03;5063962;28;66107;-30
2024/04/04 07:37:09;;;;;;;4.35;4.05;;;;;;;36.04;78.00;100522.09;5069767;28;69957;-31
2024/04/04 07:39:38;;;;;;;4.35;4.05;;;;;;;36.13;77.79;100522.47;5059821;28;65610;-31
2024/04/04 07:42:08;;;;;;;4.47;4.20;;;;;;;36.17;77.79;100529.03;5052717;28;69712;-30
2024/04/04 07:44:38;;;;;;;4.30;4.00;;;;;;;36.21;77.27;100513.75;5060790;28;66448;-30
2024/04/04 07:47:08;;;;;;;4.27;3.93;;;;;;;36.26;77.37;100521.16;5042551;28;69562;-31
2024/04/04 07:49:36;;;;;;;4.38;4.00;;;;;;;36.31;77.07;100513.81;5060797;28;66620;-30
2024/04/04 07:52:05;;;;;;;4.47;4.03;;;;;;;36.37;76.97;100506.47;5041463;28;69634;-31
2024/04/04 07:54:35;;;;;;;4.07;3.88;;;;;;;36.43;76.81;100510.84;5057877;28;65824;-30
2024/04/04 07:57:05;;;;;;;4.07;3.78;;;;;;;36.46;76.93;100505.66;5060488;28;70368;-31
2024/04/04 07:59:34;;;;;;;3.88;3.58;;;;;;;36.51;76.46;100506.78;5044488;28;65719;-31
2024/04/04 08:02:03;;;;;;;4.45;4.15;;;;;;;36.47;76.08;100480.00;5058873;28;70463;-30
2024/04/04 08:04:32;;;;;;;5.53;4.00;;;;;;;36.60;76.27;100494.28;5060569;28;66772;-33
2024/04/04 08:07:01;;;;;;;4.05;3.85;;;;;;;36.66;76.20;100498.66;5044018;28;69834;-32
2024/04/04 08:09:34;;;;;;;4.22;3.92;;;;;;;36.72;75.41;100497.59;5083566;27;65626;-30
2024/04/04 08:12:03;;;;;;;4.10;3.80;;;;;;;36.79;75.81;100487.22;5066573;28;69388;-30
2024/04/04 08:14:32;;;;;;;4.00;3.70;;;;;;;36.84;76.08;100489.97;5043101;28;67055;-31
2024/04/04 08:17:07;;;;;;;4.00;3.70;;;;;;;36.89;75.65;100494.63;5038572;28;69176;-29
2024/04/04 08:19:36;;;;;;;3.63;3.33;;;;;;;36.97;75.19;100493.25;5057370;28;65974;-32
2024/04/04 08:22:07;;;;;;;4.20;3.90;;;;;;;37.05;74.94;100484.53;5060838;28;71115;-33
2024/04/04 08:24:36;;;;;;;3.90;3.60;;;;;;;37.09;75.32;100486.47;5058401;28;65476;-31
2024/04/04 08:27:05;;;;;;;4.10;3.80;;;;;;;37.12;74.79;100485.13;5060681;28;70531;-31
2024/04/04 08:29:40;;;;;;;4.07;3.80;;;;;;;37.16;74.94;100491.66;5056006;28;65436;-32
2024/04/04 08:32:19;;;;;;;3.72;3.53;;;;;;;37.23;74.84;100475.00;5053504;28;69921;-31
2024/04/04 08:34:48;;;;;;;3.70;3.50;;;;;;;37.27;74.64;100479.63;5043903;28;66152;-31
2024/04/04 08:37:17;;;;;;;3.75;3.45;;;;;;;37.29;74.94;100463.78;5051590;28;70065;-30
2024/04/04 08:39:47;;;;;;;4.10;3.90;;;;;;;37.35;74.28;100462.66;5041139;28;66563;-32
2024/04/04 08:42:16;;;;;;;3.80;3.60;;;;;;;37.40;74.05;100469.25;5059219;28;70401;-32
2024/04/04 08:44:48;;;;;;;3.67;3.47;;;;;;;37.45;74.75;100471.97;5071282;28;65236;-31
2024/04/04 08:47:20;;;;;;;3.67;3.42;;;;;;;37.48;74.12;100474.16;5060290;28;70377;-31
2024/04/04 08:49:50;;;;;;;3.80;3.60;;;;;;;37.50;73.96;100464.63;5060298;28;65831;-31
2024/04/04 08:52:19;;;;;;;3.80;3.60;;;;;;;37.54;73.67;100479.38;5083012;27;70621;-32
2024/04/04 08:54:48;;;;;;;3.63;3.33;;;;;;;37.55;74.05;100456.38;5061743;28;66286;-31
2024/04/04 08:57:21;;;;;;;4.55;3.60;;;;;;;37.42;74.01;100445.16;5057125;28;70530;-31
2024/04/04 08:59:57;;;;;;;4.07;3.78;;;;;;;37.60;73.00;100469.25;5073522;28;66371;-30
2024/04/04 09:02:30;;;;;;;4.28;3.97;;;;;;;37.63;73.69;100463.22;5063096;28;69380;-31
2024/04/04 09:05:07;;;;;;;3.40;3.20;;;;;;;37.64;73.45;100459.41;5077930;28;66318;-32
2024/04/04 09:07:37;;;;;;;3.90;3.67;;;;;;;37.63;73.65;100451.44;5059424;28;69576;-32
2024/04/04 09:10:06;;;;;;;4.32;3.67;;;;;;;37.66;73.59;100451.72;5077260;28;66357;-32
2024/04/04 09:12:35;;;;;;;4.38;3.58;;;;;;;37.71;73.81;100459.91;5076586;28;69766;-36
2024/04/04 09:15:10;;;;;;;4.65;4.28;;;;;;;37.50;73.15;100426.31;5076658;28;66585;-32
2024/04/04 09:17:39;;;;;;;4.10;3.80;;;;;;;37.57;73.04;100450.66;5052761;28;70256;-34
2024/04/04 09:20:10;;;;;;;4.53;4.22;;;;;;;37.58;73.30;100455.00;5054490;28;65704;-30
2024/04/04 09:22:39;;;;;;;5.20;4.75;;;;;;;37.58;72.86;100455.00;5077146;28;69985;-31
2024/04/04 09:25:09;;;;;;;4.70;4.32;;;;;;;37.42;72.48;100428.72;5078900;28;65856;-31
2024/04/04 09:27:39;;;;;;;4.97;4.57;;;;;;;37.54;72.64;100453.94;5077998;28;69904;-30
2024/04/04 09:30:12;;;;;;;5.57;5.07;;;;;;;37.39;73.04;100430.13;5063131;28;65700;-32
2024/04/04 09:32:42;;;;;;;6.30;5.18;;;;;;;37.46;73.36;100451.72;5044159;28;70059;-32
2024/04/04 09:35:12;;;;;;;5.32;5.03;;;;;;;37.43;72.70;100455.00;5078138;28;66462;-31
2024/04/04 09:37:41;;;;;;;5.85;5.30;;;;;;;37.45;72.42;100450.09;5077885;28;70463;-31
2024/04/04 09:40:11;;;;;;;6.45;5.93;;;;;;;37.42;73.16;100450.63;5079706;28;66360;-32
2024/04/04 09:42:44;;;;;;;6.07;5.53;;;;;;;37.37;72.46;100453.38;5077515;28;70052;-32
2024/04/04 09:45:14;;;;;;;7.00;6.18;;;;;;;37.35;72.17;100457.19;5077832;28;66699;-31
2024/04/04 09:47:45;;;;;;;6.95;6.30;;;;;;;37.35;72.66;100450.91;5068122;28;72059;-33
2024/04/04 09:50:16;;;;;;;6.93;6.32;;;;;;;37.30;72.80;100459.94;5054427;28;65276;-31
2024/04/04 09:52:46;;;;;;;10.10;6.30;;;;;;;37.26;72.71;100453.38;5071556;28;69436;-33
2024/04/04 09:55:18;;;;;;;12.48;5.93;;;;;;;37.06;72.42;100423.31;5078379;28;65348;-33
2024/04/04 09:57:48;;;;;;;10.10;6.85;;;;;;;37.20;72.64;100464.63;5074376;28;69888;-31
2024/04/04 10:00:19;;;;;;;6.65;6.05;;;;;;;37.20;72.23;100464.63;5042947;28;65109;-30
2024/04/04 10:02:56;;;;;;;7.27;6.57;;;;;;;37.16;72.67;100467.06;5079480;28;69291;-31
2024/04/04 10:05:31;;;;;;;7.07;6.60;;;;;;;37.12;72.63;100474.19;5073682;28;66935;-32
2024/04/04 10:08:14;;;;;;;6.57;6.18;;;;;;;37.10;72.33;100470.88;5074590;27;69676;-31
2024/04/04 10:10:46;;;;;;;9.15;6.00;;;;;;;37.10;73.03;100468.16;5066212;28;65921;-31
2024/04/04 10:13:15;;;;;;;9.48;5.85;;;;;;;37.08;72.25;100473.91;5076722;28;69612;-30
2024/04/04 10:15:45;;;;;;;12.20;6.30;;;;;;;37.03;71.29;100473.09;5078228;28;66249;-32
2024/04/04 10:18:17;;;;;;;12.95;6.50;;;;;;;37.01;70.88;100477.97;5075501;28;70869;-30
2024/04/04 10:20:54;;;;;;;7.20;6.38;;;;;;;36.88;70.20;100480.13;5079150;28;66582;-33
2024/04/04 10:23:25;;;;;;;19.20;7.85;;;;;;;36.87;70.22;100481.22;5076704;28;70119;-32
2024/04/04 10:26:09;;;;;;;17.13;7.50;;;;;;;36.92;70.82;100491.34;5078571;28;66409;-30
2024/04/04 10:28:38;;;;;;;16.10;6.57;;;;;;;36.88;71.28;100495.72;5061268;28;70348;-32
2024/04/04 10:31:09;;;;;;;20.00;7.00;;;;;;;36.86;70.85;100501.47;5077702;28;65941;-32
2024/04/04 10:33:38;;;;;;;9.07;5.60;;;;;;;36.86;70.45;100504.19;5079820;28;69238;-31
2024/04/04 10:36:07;;;;;;;7.13;5.13;;;;;;;36.77;70.12;100504.97;5079283;28;66645;-32
2024/04/04 10:38:36;;;;;;;7.38;4.82;;;;;;;36.76;70.95;100509.63;5078466;28;70549;-31
2024/04/04 10:41:05;;;;;;;5.15;4.68;;;;;;;36.70;70.61;100510.72;5076077;28;66381;-32
2024/04/04 10:43:40;;;;;;;10.77;4.80;;;;;;;36.57;70.00;100489.34;5076865;28;70108;-30
2024/04/04 10:46:09;;;;;;;5.57;4.57;;;;;;;36.74;71.12;100517.25;5075241;28;65903;-32
2024/04/04 10:48:40;;;;;;;;;;;;;;;36.58;71.09;100518.31;5069412;27;71081;-33
2024/04/04 10:51:10;;;;;;;5.53;4.47;;;;;;;36.59;71.00;100525.44;5072477;28;66099;-31
2024/04/04 10:53:40;;;;;;;9.23;4.90;;;;;;;36.62;70.63;100530.34;5073206;28;69490;-31
2024/04/04 10:56:08;;;;;;;9.98;4.18;;;;;;;36.58;71.48;100529.25;5074724;28;65600;-34
2024/04/04 10:58:38;;;;;;;10.07;5.30;;;;;;;36.52;71.77;100535.75;5061759;28;69449;-34
2024/04/04 11:01:07;;;;;;;4.93;4.53;;;;;;;36.49;70.90;100528.09;5073633;28;66413;-31
2024/04/04 11:03:40;;;;;;;8.60;4.70;;;;;;;36.42;70.70;100537.34;5075866;28;69382;-31
2024/04/04 11:06:09;;;;;;;5.50;4.18;;;;;;;36.44;70.88;100548.84;5064117;28;65433;-32
2024/04/04 11:08:38;;;;;;;6.80;5.10;;;;;;;36.43;71.06;100549.91;5060294;28;69810;-32
2024/04/04 11:11:09;;;;;;;8.52;3.97;;;;;;;36.29;71.18;100548.75;5077781;28;65596;-31
2024/04/04 11:13:39;;;;;;;11.55;3.40;;;;;;;36.34;71.38;100550.69;5076696;28;69437;-33
2024/04/04 11:16:09;;;;;;;7.28;3.25;;;;;;;36.20;70.85;100559.38;5076189;28;66206;-32
2024/04/04 11:18:39;;;;;;;18.83;3.55;;;;;;;36.27;71.41;100566.50;5075610;28;69922;-32
2024/04/04 11:21:09;;;;;;;4.93;2.90;;;;;;;36.00;71.39;100534.66;5076831;28;65764;-32
2024/04/04 11:23:38;;;;;;;5.82;3.20;;;;;;;36.17;71.60;100561.81;5074489;28;69634;-30
2024/04/04 11:26:09;;;;;;;4.70;2.70;;;;;;;36.13;71.21;100555.22;5075569;28;66142;-32
2024/04/04 11:28:38;;;;;;;6.40;2.65;;;;;;;36.09;71.13;100567.78;5074456;27;69343;-32
2024/04/04 11:31:07;;;;;;;6.45;2.42;;;;;;;36.07;71.56;100567.19;5075734;28;66300;-32
2024/04/04 11:33:36;;;;;;;6.63;3.22;;;;;;;35.98;72.18;100559.47;5077914;28;69536;-30
2024/04/04 11:36:06;;;;;;;10.18;2.17;;;;;;;35.99;72.32;100580.22;5076647;28;66562;-31
2024/04/04 11:38:35;;;;;;;7.63;2.80;;;;;;;35.96;72.22;100575.28;5077179;28;70516;-31
2024/04/04 11:41:04;;;;;;;23.70;3.35;;;;;;;35.92;72.15;100576.91;5074052;28;66350;-33